createdAt,value
2023-02-24T08:06:50.395Z,97641.00
2023-02-24T08:11:04.177Z,97644.00
2023-02-24T08:16:20.259Z,97648.00
2023-02-24T08:18:50.345Z,97657.00
2023-02-24T08:21:19.763Z,97645.00
2023-02-24T08:23:48.159Z,97648.00
2023-02-24T08:26:16.087Z,97644.00
2023-02-24T08:28:43.798Z,97633.00
2023-02-24T08:31:12.783Z,97628.00
2023-02-24T08:33:40.226Z,97622.00
2023-02-24T08:36:07.597Z,97621.00
2023-02-24T08:38:44.676Z,97611.00
2023-02-24T08:41:18.413Z,97617.00
2023-02-24T08:43:48.308Z,97607.00
2023-02-24T08:46:26.355Z,97616.00
2023-02-24T08:49:02.657Z,97611.00
2023-02-24T08:51:43.713Z,97613.00
2023-02-24T08:54:49.196Z,97603.00
2023-02-24T08:57:18.196Z,97612.00
2023-02-24T08:59:50.139Z,97618.00
2023-02-24T09:02:24.912Z,97613.00
2023-02-24T09:05:12.471Z,97609.00
2023-02-24T09:07:43.294Z,97616.00
2023-02-24T09:10:20.350Z,97614.00
2023-02-24T09:12:49.166Z,97611.00
2023-02-24T09:15:16.617Z,97602.00
2023-02-24T09:17:45.706Z,97588.00
2023-02-24T09:20:42.136Z,97588.00
2023-02-24T09:23:20.138Z,97580.00
2023-02-24T09:25:54.267Z,97587.00
2023-02-24T09:28:25.810Z,97581.00
2023-02-24T09:31:04.796Z,97562.00
2023-02-24T09:33:42.078Z,97572.00
2023-02-24T09:36:28.369Z,97567.00
2023-02-24T09:39:02.989Z,97567.00
2023-02-24T09:41:54.807Z,97575.00
2023-02-24T09:44:44.940Z,97579.00
2023-02-24T09:47:51.317Z,97576.00
2023-02-24T09:51:04.647Z,97567.00
2023-02-24T09:53:49.286Z,97563.00
2023-02-24T09:56:42.579Z,97559.00
2023-02-24T09:59:40.762Z,97546.00
2023-02-24T10:02:59.994Z,97533.00
2023-02-24T10:06:12.193Z,97549.00
2023-02-24T10:08:51.933Z,97548.00
2023-02-24T10:11:33.194Z,97540.00
2023-02-24T10:14:09.665Z,97540.00
2023-02-24T10:16:44.396Z,97535.00
2023-02-24T10:19:30.667Z,97544.00
2023-02-24T10:22:27.535Z,97540.00
2023-02-24T10:25:27.242Z,97532.00
2023-02-24T10:28:20.149Z,97533.00
2023-02-24T10:31:26.563Z,97533.00
2023-02-24T10:34:08.728Z,97540.00
2023-02-24T10:36:36.789Z,97533.00
2023-02-24T10:39:26.589Z,97523.00
2023-02-24T10:42:16.203Z,97517.00
2023-02-24T10:45:02.256Z,97520.00
2023-02-24T10:47:31.756Z,97525.00
2023-02-24T10:50:05.504Z,97519.00
2023-02-24T10:52:58.173Z,97517.00
2023-02-24T10:55:47.287Z,97526.00
2023-02-24T10:58:28.703Z,97520.00
2023-02-24T11:01:18.397Z,97523.00
2023-02-24T11:04:22.519Z,97515.00
2023-02-24T11:06:55.521Z,97515.00
2023-02-24T11:09:27.768Z,97509.00
2023-02-24T11:12:26.003Z,97501.00
2023-02-24T11:15:23.522Z,97495.00
2023-02-24T11:17:59.863Z,97498.00
2023-02-24T11:20:52.067Z,97488.00
2023-02-24T11:23:42.191Z,97489.00
2023-02-24T11:26:40.660Z,97480.00
2023-02-24T11:30:15.080Z,97480.00
2023-02-24T11:33:17.361Z,97468.00
2023-02-24T11:36:30.660Z,97471.00
2023-02-24T11:39:42.597Z,97467.00
2023-02-24T11:42:46.155Z,97456.00
2023-02-24T11:45:50.747Z,97457.00
2023-02-24T11:48:41.493Z,97420.00
2023-02-24T11:51:37.031Z,97435.00
2023-02-24T11:54:15.265Z,97424.00
2023-02-24T11:56:53.226Z,97423.00
2023-02-24T11:59:54.450Z,97425.00
2023-02-24T12:03:16.011Z,97403.00
2023-02-24T12:05:53.692Z,97403.00
2023-02-24T12:08:39.466Z,97402.00
2023-02-24T12:11:32.972Z,97403.00
2023-02-24T12:15:04.679Z,97393.00
2023-02-24T12:17:58.045Z,97404.00
2023-02-24T12:21:00.585Z,97398.00
2023-02-24T12:23:45.092Z,97389.00
2023-02-24T12:27:20.261Z,97393.00
2023-02-24T12:30:50.834Z,97381.00
2023-02-24T12:33:56.644Z,97377.00
2023-02-24T12:37:24.601Z,97372.00
2023-02-24T12:40:54.793Z,97380.00
2023-02-24T12:44:22.430Z,97369.00
2023-02-24T12:47:21.155Z,97359.00
2023-02-24T12:50:27.832Z,97360.00
2023-02-24T12:53:13.269Z,97356.00
2023-02-24T12:56:06.313Z,97355.00
2023-02-24T12:58:42.364Z,97357.00
2023-02-24T13:01:51.486Z,97349.00
2023-02-24T13:05:02.280Z,97348.00
2023-02-24T13:07:39.870Z,97333.00
2023-02-24T13:10:38.714Z,97330.00
2023-02-24T13:13:50.445Z,97323.00
2023-02-24T13:16:35.124Z,97326.00
2023-02-24T13:19:30.109Z,97325.00
2023-02-24T13:22:25.649Z,97324.00
2023-02-24T13:25:07.552Z,97316.00
2023-02-24T13:27:42.895Z,97315.00
2023-02-24T13:30:17.784Z,97300.00
2023-02-24T13:32:59.575Z,97288.00
2023-02-24T13:35:26.743Z,97293.00
2023-02-24T13:37:54.736Z,97301.00
2023-02-24T13:40:28.110Z,97292.00
2023-02-24T13:42:58.885Z,97284.00
2023-02-24T13:45:32.446Z,97307.00
2023-02-24T13:48:56.335Z,97299.00
2023-02-24T13:51:59.345Z,97284.00
2023-02-24T13:55:18.209Z,97274.00
2023-02-24T13:58:38.627Z,97275.00
2023-02-24T14:01:17.973Z,97290.00
2023-02-24T14:04:21.264Z,97263.00
2023-02-24T14:07:03.394Z,97269.00
2023-02-24T14:09:51.299Z,97279.00
2023-02-24T14:12:28.702Z,97272.00
2023-02-24T14:14:56.849Z,97270.00
2023-02-24T14:17:37.089Z,97259.00
2023-02-24T14:20:10.213Z,97266.00
2023-02-24T14:22:55.610Z,97252.00
2023-02-24T14:25:24.840Z,97247.00
2023-02-24T14:27:56.333Z,97249.00
2023-02-24T14:30:38.207Z,97243.00
2023-02-24T14:33:20.223Z,97242.00
2023-02-24T14:35:49.019Z,97229.00
2023-02-24T14:38:41.066Z,97232.00
2023-02-24T14:41:26.104Z,97232.00
2023-02-24T14:43:55.329Z,97227.00
2023-02-24T14:46:24.249Z,97235.00
2023-02-24T14:48:56.333Z,97240.00
2023-02-24T14:51:36.225Z,97238.00
2023-02-24T14:54:12.167Z,97238.00
2023-02-24T14:56:41.470Z,97228.00
2023-02-24T14:59:32.874Z,97224.00
2023-02-24T15:02:02.732Z,97224.00
2023-02-24T15:04:43.771Z,97233.00
2023-02-24T15:07:34.846Z,97225.00
2023-02-24T15:10:06.618Z,97224.00
2023-02-24T15:12:49.014Z,97228.00
2023-02-24T15:15:30.783Z,97228.00
2023-02-24T15:18:17.544Z,97226.00
2023-02-24T15:20:44.882Z,97222.00
2023-02-24T15:23:37.850Z,97229.00
2023-02-24T15:26:24.211Z,97230.00
2023-02-24T15:29:13.499Z,97226.00
2023-02-24T15:31:47.182Z,97229.00
2023-02-24T15:34:26.180Z,97213.00
2023-02-24T15:37:04.352Z,97207.00
2023-02-24T15:39:34.269Z,97214.00
2023-02-24T15:42:34.754Z,97205.00
2023-02-24T15:45:25.023Z,97192.00
2023-02-24T15:47:59.235Z,97203.00
2023-02-24T15:50:28.643Z,97206.00
2023-02-24T15:53:03.602Z,97217.00
2023-02-24T15:55:32.595Z,97209.00
2023-02-24T15:58:03.394Z,97189.00
2023-02-24T16:00:31.374Z,97185.00
2023-02-24T16:02:59.043Z,97201.00
2023-02-24T16:05:26.915Z,97189.00
2023-02-24T16:07:54.905Z,97192.00
2023-02-24T16:10:29.279Z,97183.00
2023-02-24T16:13:01.570Z,97181.00
2023-02-24T16:15:37.196Z,97174.00
2023-02-24T16:18:14.113Z,97176.00
2023-02-24T16:20:41.760Z,97176.00
2023-02-24T16:23:10.984Z,97177.00
2023-02-24T16:25:45.032Z,97178.00
2023-02-24T16:28:21.368Z,97174.00
2023-02-24T16:30:51.211Z,97164.00
2023-02-24T16:33:23.978Z,97162.00
2023-02-24T16:35:54.804Z,97145.00
2023-02-24T16:38:26.656Z,97162.00
2023-02-24T16:40:55.410Z,97166.00
2023-02-24T16:43:22.698Z,97161.00
2023-02-24T16:45:52.736Z,97159.00
2023-02-24T16:48:26.260Z,97158.00
2023-02-24T16:50:54.414Z,97158.00
2023-02-24T16:53:24.399Z,97159.00
2023-02-24T16:55:52.157Z,97163.00
2023-02-24T16:58:20.006Z,97165.00
2023-02-24T17:00:52.299Z,97162.00
2023-02-24T17:03:45.021Z,97160.00
2023-02-24T17:06:12.389Z,97164.00
2023-02-24T17:08:43.407Z,97158.00
2023-02-24T17:11:21.817Z,97159.00
2023-02-24T17:13:49.299Z,97151.00
2023-02-24T17:16:16.631Z,97153.00
2023-02-24T17:18:43.980Z,97145.00
2023-02-24T17:21:14.492Z,97142.00
2023-02-24T17:23:42.603Z,97141.00
2023-02-24T17:26:15.334Z,97150.00
2023-02-24T17:28:43.242Z,97152.00
2023-02-24T17:31:10.813Z,97161.00
2023-02-24T17:33:38.225Z,97161.00
2023-02-24T17:36:05.965Z,97169.00
2023-02-24T17:38:33.574Z,97174.00
2023-02-24T17:41:02.302Z,97175.00
2023-02-24T17:43:29.697Z,97166.00
2023-02-24T17:45:57.090Z,97175.00
2023-02-24T17:48:24.616Z,97166.00
2023-02-24T17:50:52.037Z,97176.00
2023-02-24T17:53:19.344Z,97183.00
2023-02-24T17:56:02.022Z,97176.00
2023-02-24T17:58:31.468Z,97176.00
2023-02-24T18:00:59.127Z,97170.00
2023-02-24T18:03:26.510Z,97170.00
2023-02-24T18:06:20.462Z,97179.00
2023-02-24T18:08:48.050Z,97179.00
2023-02-24T18:11:19.502Z,97173.00
2023-02-24T18:13:50.731Z,97160.00
2023-02-24T18:16:18.142Z,97171.00
2023-02-24T18:18:45.784Z,97177.00
2023-02-24T18:21:13.120Z,97168.00
2023-02-24T18:23:41.437Z,97166.00
2023-02-24T18:26:12.639Z,97169.00
2023-02-24T18:28:40.071Z,97166.00
2023-02-24T18:31:21.875Z,97161.00
2023-02-24T18:33:50.223Z,97172.00
2023-02-24T18:36:18.985Z,97178.00
2023-02-24T18:38:46.589Z,97167.00
2023-02-24T18:41:19.871Z,97159.00
2023-02-24T18:43:55.351Z,97150.00
2023-02-24T18:46:25.038Z,97159.00
2023-02-24T18:48:52.990Z,97149.00
2023-02-24T18:51:26.541Z,97159.00
2023-02-24T18:53:54.463Z,97165.00
2023-02-24T18:56:28.915Z,97162.00
2023-02-24T18:59:00.447Z,97152.00
2023-02-24T19:01:41.141Z,97156.00
2023-02-24T19:04:09.435Z,97150.00
2023-02-24T19:06:37.475Z,97160.00
2023-02-24T19:09:10.856Z,97157.00
2023-02-24T19:11:40.868Z,97159.00
2023-02-24T19:14:12.015Z,97153.00
2023-02-24T19:16:40.240Z,97155.00
2023-02-24T19:19:08.234Z,97160.00
2023-02-24T19:21:35.885Z,97168.00
2023-02-24T19:24:08.027Z,97163.00
2023-02-24T19:26:35.529Z,97179.00
2023-02-24T19:29:03.961Z,97175.00
2023-02-24T19:31:34.269Z,97168.00
2023-02-24T19:34:10.120Z,97169.00
2023-02-24T19:36:38.608Z,97170.00
2023-02-24T19:39:13.214Z,97162.00
2023-02-24T19:41:41.278Z,97171.00
2023-02-24T19:44:10.206Z,97167.00
2023-02-24T19:46:38.977Z,97160.00
2023-02-24T19:49:06.832Z,97170.00
2023-02-24T19:51:35.551Z,97164.00
2023-02-24T19:54:05.862Z,97170.00
2023-02-24T19:56:36.916Z,97183.00
2023-02-24T19:59:11.343Z,97187.00
2023-02-24T20:01:38.749Z,97189.00
2023-02-24T20:04:07.049Z,97191.00
2023-02-24T20:06:43.693Z,97201.00
2023-02-24T20:09:21.324Z,97187.00
2023-02-24T20:11:51.183Z,97202.00
2023-02-24T20:14:20.541Z,97199.00
2023-02-24T20:16:48.402Z,97202.00
2023-02-24T20:19:17.305Z,97194.00
2023-02-24T20:21:44.685Z,97203.00
2023-02-24T20:24:16.515Z,97200.00
2023-02-24T20:26:49.550Z,97194.00
2023-02-24T20:29:21.469Z,97202.00
2023-02-24T20:31:49.709Z,97215.00
2023-02-24T20:34:17.791Z,97208.00
2023-02-24T20:36:45.124Z,97201.00
2023-02-24T20:39:12.556Z,97205.00
2023-02-24T20:41:40.787Z,97207.00
2023-02-24T20:44:08.628Z,97202.00
2023-02-24T20:46:36.187Z,97196.00
2023-02-24T20:49:08.779Z,97205.00
2023-02-24T20:51:38.558Z,97201.00
2023-02-24T20:54:09.651Z,97210.00
2023-02-24T20:56:41.634Z,97201.00
2023-02-24T20:59:21.998Z,97197.00
2023-02-24T21:01:50.791Z,97201.00
2023-02-24T21:04:21.554Z,97212.00
2023-02-24T21:06:51.480Z,97217.00
2023-02-24T21:09:18.833Z,97214.00
2023-02-24T21:11:46.207Z,97206.00
2023-02-24T21:14:17.600Z,97203.00
2023-02-24T21:16:46.251Z,97207.00
2023-02-24T21:19:13.803Z,97215.00
2023-02-24T21:21:41.199Z,97217.00
2023-02-24T21:24:08.857Z,97208.00
2023-02-24T21:26:36.196Z,97201.00
2023-02-24T21:29:03.642Z,97203.00
2023-02-24T21:31:30.999Z,97203.00
2023-02-24T21:33:58.374Z,97200.00
2023-02-24T21:36:27.689Z,97202.00
2023-02-24T21:38:55.668Z,97200.00
2023-02-24T21:41:24.041Z,97213.00
2023-02-24T21:43:55.941Z,97208.00
